Zebulon, Georgia
Current Conditions -  °F | °C
As of 9:35 PM on Saturday 20 Dec 2014 (Local Time) from KOPN Reporting Station
Haze Haze  
Wind Chill: 52°   Ceiling: 700
Heat Index: 52°   Visibility: 5mi
Dew Point: 50°   Wind: 3mph
Humidity: 94%   Direction: 70°ENE
Pressure: 30.2"   Gusts: NA
Location:  33.1°N, 84.34°W
Report Text: KOPN 210235Z AUTO 07003KT 5SM BR OVC007 11/10 A3020 RMK AO2
Loading
Personal Weather Stations






























Interactive Weather Map New forecast layout! Learn more

10-Day Weather Forecast

Advertisements
Track Severe Weather on mobile